Time;durP1;ratioP1;P1;durP2;ratioP2;P2;SDS_P1;SDS_P2;PMS_P1;PMS_P2;Temp;Humidity;BMP_temperature;BMP_pressure;BME280_temperature;BME280_humidity;BME280_pressure;Samples;Min_cycle;Max_cycle;Signal;HPM_P1;HPM_P2
2022/04/14 00:00:20;;;;;;;19.42;10.20;;;;;;;;;;6167616;23;20017;-92
2022/04/14 00:02:46;;;;;;;14.63;9.27;;;;;;;;;;6146941;23;20360;-88
2022/04/14 00:05:12;;;;;;;13.52;8.82;;;;;;;;;;6148223;23;20024;-86
2022/04/14 00:07:39;;;;;;;13.95;9.20;;;;;;;;;;6143328;23;20028;-85
2022/04/14 00:10:05;;;;;;;18.13;9.80;;;11.40;99.90;;;;;;6141132;23;20021;-86
2022/04/14 00:12:31;;;;;;;17.33;10.35;;;;;;;;;;6164700;23;20028;-82
2022/04/14 00:14:58;;;;;;;14.43;9.13;;;;;;;;;;6163541;23;20013;-95
2022/04/14 00:17:24;;;;;;;12.57;8.95;;;;;;;;;;6162454;23;20021;-93
2022/04/14 00:19:51;;;;;;;14.88;9.68;;;;;;;;;;6137497;23;20355;-87
2022/04/14 00:22:17;;;;;;;14.82;8.90;;;;;;;;;;6162207;23;20488;-85
2022/04/14 00:24:43;;;;;;;17.58;9.32;;;;;;;;;;6138236;23;20017;-85
2022/04/14 00:27:09;;;;;;;15.63;9.63;;;;;;;;;;6162365;23;20028;-89
2022/04/14 00:29:35;;;;;;;24.00;10.95;;;;;;;;;;6137650;23;20014;-88
2022/04/14 00:32:01;;;;;;;17.42;10.95;;;;;;;;;;6162775;23;20354;-90
2022/04/14 00:34:27;;;;;;;17.58;10.63;;;;;;;;;;6162991;23;20402;-85
2022/04/14 00:36:53;;;;;;;19.35;10.27;;;;;;;;;;6163145;23;20488;-88
2022/04/14 00:39:19;;;;;;;16.45;8.88;;;;;;;;;;6138137;23;20021;-83
2022/04/14 00:41:45;;;;;;;17.23;10.02;;;;;;;;;;6137312;23;20020;-84
2022/04/14 00:44:11;;;;;;;18.63;11.02;;;;;;;;;;6138129;23;20079;-85
2022/04/14 00:46:37;;;;;;;18.25;10.52;;;;;;;;;;6138259;23;20021;-87
2022/04/14 00:49:03;;;;;;;15.52;10.80;;;;;;;;;;6137612;23;20024;-85
2022/04/14 00:51:30;;;;;;;18.88;11.88;;;;;;;;;;6162144;23;20032;-88
2022/04/14 00:53:56;;;;;;;19.65;10.80;;;;;;;;;;6137382;23;20050;-86
2022/04/14 00:56:22;;;;;;;17.45;11.10;;;;;;;;;;6162829;23;20021;-86
2022/04/14 00:58:48;;;;;;;24.00;11.88;;;;;;;;;;6137927;23;20095;-86
2022/04/14 01:01:15;;;;;;;17.20;11.55;;;;;;;;;;6137363;23;20335;-87
2022/04/14 01:03:45;;;;;;;19.52;12.40;;;11.20;99.90;;;;;;6161497;23;20047;-94
2022/04/14 01:06:14;;;;;;;20.85;11.95;;;;;;;;;;6161866;23;20450;-90
2022/04/14 01:08:40;;;;;;;20.70;13.15;;;;;;;;;;6161763;23;20012;-90
2022/04/14 01:11:07;;;;;;;18.65;12.82;;;;;;;;;;6137702;23;20442;-87
2022/04/14 01:13:33;;;;;;;22.30;14.98;;;;;;;;;;6162482;23;20052;-90
2022/04/14 01:15:59;;;;;;;19.85;13.18;;;;;;;;;;6136926;23;20013;-91
2022/04/14 01:18:26;;;;;;;22.00;13.52;;;10.80;99.90;;;;;;6162028;23;20070;-90
2022/04/14 01:20:52;;;;;;;24.20;14.43;;;;;;;;;;6161509;23;20013;-94
2022/04/14 01:23:20;;;;;;;24.73;14.75;;;;;;;;;;6161791;23;20075;-93
2022/04/14 01:25:46;;;;;;;20.42;13.70;;;;;;;;;;6136917;23;20023;-92
2022/04/14 01:28:12;;;;;;;26.08;14.45;;;;;;;;;;6137248;23;20048;-87
2022/04/14 01:30:38;;;;;;;20.80;14.43;;;;;;;;;;6137162;23;20204;-91
2022/04/14 01:33:05;;;;;;;17.85;13.20;;;;;;;;;;6137938;23;20059;-91
2022/04/14 01:35:31;;;;;;;22.77;14.82;;;;;;;;;;6141345;23;20024;-88
2022/04/14 01:37:57;;;;;;;22.35;14.73;;;;;;;;;;6165109;23;20493;-91
2022/04/14 01:40:23;;;;;;;24.65;14.75;;;;;;;;;;6139617;23;20463;-84
2022/04/14 01:42:49;;;;;;;22.08;14.23;;;;;;;;;;6138812;23;20033;-85
2022/04/14 01:45:15;;;;;;;25.30;15.15;;;;;;;;;;6165756;23;20021;-89
2022/04/14 01:47:41;;;;;;;24.95;15.68;;;;;;;;;;6163403;23;20017;-87
2022/04/14 01:50:08;;;;;;;26.50;15.52;;;;;;;;;;6137193;23;20354;-82
2022/04/14 01:52:34;;;;;;;24.02;15.82;;;;;;;;;;6161170;23;20454;-91
2022/04/14 01:55:00;;;;;;;21.83;15.90;;;;;;;;;;6136864;23;20425;-89
2022/04/14 01:57:26;;;;;;;28.50;16.25;;;;;;;;;;6137240;23;20101;-87
2022/04/14 01:59:52;;;;;;;20.05;14.63;;;;;;;;;;6137505;23;20066;-85
2022/04/14 02:02:18;;;;;;;24.25;16.27;;;;;;;;;;6136890;23;20017;-90
2022/04/14 02:04:44;;;;;;;26.08;16.48;;;;;;;;;;6161672;23;20438;-88
2022/04/14 02:07:10;;;;;;;23.65;14.73;;;;;;;;;;6136991;23;20017;-92
2022/04/14 02:09:37;;;;;;;26.83;17.05;;;;;;;;;;6137468;23;20043;-87
2022/04/14 02:12:04;;;;;;;30.83;16.85;;;10.50;99.90;;;;;;6136190;23;20347;-83
2022/04/14 02:14:30;;;;;;;30.25;15.93;;;;;;;;;;6161242;23;20346;-87
2022/04/14 02:16:56;;;;;;;30.77;16.23;;;;;;;;;;6136711;23;20024;-87
2022/04/14 02:19:22;;;;;;;21.75;16.45;;;;;;;;;;6137131;23;20050;-87
2022/04/14 02:21:48;;;;;;;28.63;16.73;;;;;;;;;;6136686;23;20017;-86
2022/04/14 02:24:14;;;;;;;28.80;16.92;;;;;;;;;;6161516;23;20013;-86
2022/04/14 02:26:40;;;;;;;28.08;18.00;;;;;;;;;;6136752;23;20024;-90
2022/04/14 02:29:06;;;;;;;28.90;17.48;;;;;;;;;;6137211;23;20021;-88
2022/04/14 02:31:32;;;;;;;30.42;18.05;;;;;;;;;;6187866;23;20043;-88
2022/04/14 02:33:58;;;;;;;29.60;18.33;;;;;;;;;;6136562;23;20442;-88
2022/04/14 02:36:24;;;;;;;24.67;15.85;;;;;;;;;;6160810;23;20021;-87
2022/04/14 02:38:50;;;;;;;29.25;17.23;;;;;;;;;;6136654;23;20017;-87
2022/04/14 02:41:16;;;;;;;31.48;18.83;;;;;;;;;;6135856;23;20025;-88
2022/04/14 02:43:42;;;;;;;30.48;18.63;;;;;;;;;;6187313;23;20013;-86
2022/04/14 02:46:09;;;;;;;29.90;18.02;;;;;;;;;;6161667;23;20028;-86
2022/04/14 02:48:35;;;;;;;29.65;19.73;;;;;;;;;;6136270;23;20092;-87
2022/04/14 02:51:01;;;;;;;29.95;19.20;;;;;;;;;;6160695;23;20455;-86
2022/04/14 02:53:27;;;;;;;31.05;19.38;;;;;;;;;;6162141;23;20594;-86
2022/04/14 02:55:53;;;;;;;37.63;20.65;;;;;;;;;;6136785;23;20446;-88
2022/04/14 02:58:20;;;;;;;28.77;20.00;;;;;;;;;;6160595;23;20104;-85
2022/04/14 03:00:46;;;;;;;27.50;17.63;;;;;;;;;;6136906;23;20016;-88
2022/04/14 03:03:12;;;;;;;29.80;18.52;;;;;;;;;;6137232;23;20339;-90
2022/04/14 03:05:38;;;;;;;32.08;21.05;;;;;;;;;;6160275;23;20363;-87
2022/04/14 03:08:04;;;;;;;29.85;19.45;;;;;;;;;;6160876;23;20050;-87
2022/04/14 03:10:30;;;;;;;30.08;18.67;;;;;;;;;;6160163;23;20018;-84
2022/04/14 03:12:57;;;;;;;32.45;20.55;;;;;;;;;;6188639;23;20053;-87
2022/04/14 03:15:23;;;;;;;29.95;18.33;;;;;;;;;;6162887;23;20075;-95
2022/04/14 03:17:50;;;;;;;33.63;20.27;;;;;;;;;;6163060;23;20023;-93
2022/04/14 03:20:16;;;;;;;31.08;20.42;;;;;;;;;;6138190;23;20075;-84
2022/04/14 03:22:42;;;;;;;32.17;20.02;;;;;;;;;;6138885;23;20053;-86
2022/04/14 03:25:10;;;;;;;31.25;19.42;;;9.60;99.90;;;;;;6139602;23;20017;-93
2022/04/14 03:27:39;;;;;;;32.13;20.15;;;;;;;;;;6139098;23;20021;-93
2022/04/14 03:30:06;;;;;;;32.88;19.27;;;;;;;;;;6163176;23;20013;-87
2022/04/14 03:32:32;;;;;;;33.85;20.92;;;;;;;;;;6140625;23;20021;-82
2022/04/14 03:35:05;;;;;;;33.90;19.30;;;;;;;;;;6140769;23;20024;-86
2022/04/14 03:37:32;;;;;;;27.38;18.55;;;;;;;;;;6139740;23;20020;-96
2022/04/14 03:39:58;;;;;;;35.58;20.67;;;;;;;;;;6168343;23;20080;-93
2022/04/14 03:42:24;;;;;;;33.33;20.65;;;;;;;;;;6169908;23;20024;-90
2022/04/14 03:44:50;;;;;;;33.25;21.65;;;;;;;;;;6170925;23;20017;-89
2022/04/14 03:47:16;;;;;;;29.08;21.52;;;;;;;;;;6141793;23;20032;-85
2022/04/14 03:49:42;;;;;;;28.58;18.73;;;;;;;;;;6166936;23;20044;-88
2022/04/14 03:52:08;;;;;;;32.85;21.52;;;;;;;;;;6140315;23;20025;-92
2022/04/14 03:54:34;;;;;;;30.80;19.63;;;;;;;;;;6163346;23;20100;-89
2022/04/14 03:57:00;;;;;;;34.22;21.80;;;;;;;;;;6163609;23;20025;-91
2022/04/14 03:59:26;;;;;;;33.85;21.88;;;;;;;;;;6162298;23;20024;-88
2022/04/14 04:01:52;;;;;;;30.33;21.42;;;;;;;;;;6162485;23;20466;-88
2022/04/14 04:04:19;;;;;;;30.35;20.92;;;;;;;;;;6137644;23;20096;-88
2022/04/14 04:06:45;;;;;;;46.08;21.80;;;;;;;;;;6162536;23;20052;-87
2022/04/14 04:09:12;;;;;;;33.50;21.88;;;;;;;;;;6138652;23;20024;-89
2022/04/14 04:11:38;;;;;;;33.10;21.85;;;;;;;;;;6138074;23;20025;-87
2022/04/14 04:14:04;;;;;;;32.88;20.80;;;;;;;;;;6163185;23;20024;-86
2022/04/14 04:16:30;;;;;;;33.40;20.25;;;;;;;;;;6138330;23;20025;-88
2022/04/14 04:18:57;;;;;;;34.30;21.75;;;;;;;;;;6137752;23;20085;-87
2022/04/14 04:21:25;;;;;;;37.72;20.77;;;;;;;;;;6164460;23;20024;-87
2022/04/14 04:23:51;;;;;;;31.90;22.13;;;;;;;;;;6139956;23;20041;-90
2022/04/14 04:26:17;;;;;;;35.88;22.63;;;;;;;;;;6140154;23;20359;-88
2022/04/14 04:28:43;;;;;;;36.17;21.00;;;;;;;;;;6139022;23;20036;-86
2022/04/14 04:31:10;;;;;;;36.88;21.30;;;;;;;;;;6139259;23;20047;-93
2022/04/14 04:33:36;;;;;;;34.92;22.08;;;;;;;;;;6140773;23;20339;-90
2022/04/14 04:36:02;;;;;;;32.05;21.85;;;;;;;;;;6140364;23;20096;-86
2022/04/14 04:38:28;;;;;;;32.72;21.92;;;;;;;;;;6171379;23;20019;-85
2022/04/14 04:40:56;;;;;;;32.92;21.65;;;;;;;;;;6177136;23;20021;-82
2022/04/14 04:43:22;;;;;;;31.83;22.70;;;;;;;;;;6152782;23;20017;-81
2022/04/14 04:45:48;;;;;;;34.70;21.60;;;;;;;;;;6153707;23;20032;-89
2022/04/14 04:48:14;;;;;;;32.65;22.13;;;;;;;;;;6154655;23;20045;-87
2022/04/14 04:50:40;;;;;;;34.30;21.33;;;;;;;;;;6171646;23;20024;-88
2022/04/14 04:53:06;;;;;;;35.67;22.25;;;;;;;;;;6144709;23;20017;-91
2022/04/14 04:55:33;;;;;;;34.13;22.17;;;;;;;;;;6167164;23;20096;-82
2022/04/14 04:57:59;;;;;;;33.83;21.55;;;;;;;;;;6145955;23;20024;-87
2022/04/14 05:00:25;;;;;;;38.83;22.88;;;;;;;;;;6152418;23;20017;-82
2022/04/14 05:02:51;;;;;;;36.03;23.23;;;;;;;;;;6155084;23;20525;-83
2022/04/14 05:05:21;;;;;;;34.22;23.73;;;;;;;;;;6153659;23;20021;-82
2022/04/14 05:07:47;;;;;;;34.78;23.02;;;;;;;;;;6150013;23;20021;-82
2022/04/14 05:10:17;;;;;;;38.28;22.45;;;;;;;;;;6172989;23;20147;-81
2022/04/14 05:12:43;;;;;;;39.22;24.42;;;;;;;;;;6174558;23;20021;-84
2022/04/14 05:15:09;;;;;;;34.20;21.25;;;;;;;;;;6175722;23;20518;-84
2022/04/14 05:17:35;;;;;;;44.00;24.58;;;;;;;;;;6178489;23;20021;-84
2022/04/14 05:20:02;;;;;;;41.15;24.00;;;;;;;;;;6150003;23;20025;-82
2022/04/14 05:22:28;;;;;;;38.63;23.30;;;;;;;;;;6142729;23;20021;-91
2022/04/14 05:24:56;;;;;;;36.30;23.48;;;;;;;;;;6141753;23;20430;-86
2022/04/14 05:27:28;;;;;;;40.72;22.90;;;;;;;;;;6137928;23;20100;-88
2022/04/14 05:29:55;;;;;;;39.63;24.58;;;;;;;;;;6167738;23;20067;-83
2022/04/14 05:32:24;;;;;;;35.08;23.05;;;;;;;;;;6206344;23;20021;-86
2022/04/14 05:34:57;;;;;;;41.90;24.27;;;;;;;;;;6167943;23;20032;-87
2022/04/14 05:37:23;;;;;;;38.20;24.58;;;;;;;;;;6167990;23;20025;-86
2022/04/14 05:39:49;;;;;;;41.97;24.45;;;;;;;;;;6187757;23;20053;-85
2022/04/14 05:42:15;;;;;;;35.17;22.90;;;;;;;;;;6188708;23;20474;-89
2022/04/14 05:44:41;;;;;;;40.50;25.60;;;;;;;;;;6162423;23;20055;-86
2022/04/14 05:47:13;;;;;;;44.25;26.13;;;;;;;;;;6137288;23;20044;-86
2022/04/14 05:49:39;;;;;;;43.50;24.80;;;;;;;;;;6136932;23;20018;-87
2022/04/14 05:52:06;;;;;;;39.22;25.75;;;;;;;;;;6161171;23;20040;-88
2022/04/14 05:54:32;;;;;;;40.88;26.00;;;;;;;;;;6136154;23;20019;-85
2022/04/14 05:56:58;;;;;;;53.47;26.83;;;;;;;;;;6160549;23;20454;-89
2022/04/14 05:59:24;;;;;;;41.05;26.33;;;;;;;;;;6136218;23;20399;-87
2022/04/14 06:01:50;;;;;;;45.92;27.92;;;;;;;;;;6112594;23;20250;-89
2022/04/14 06:04:17;;;;;;;47.85;27.52;;;;;;;;;;6160809;23;20099;-86
2022/04/14 06:06:43;;;;;;;40.58;27.67;;;;;;;;;;6161086;23;20021;-86
2022/04/14 06:09:09;;;;;;;45.10;28.08;;;;;;;;;;6136993;23;20013;-88
2022/04/14 06:11:35;;;;;;;42.45;26.85;;;;;;;;;;6159295;23;20423;-84
2022/04/14 06:14:01;;;;;;;48.83;28.70;;;;;;;;;;6156338;23;20028;-89
2022/04/14 06:16:34;;;;;;;53.85;29.67;;;;;;;;;;6140740;23;20020;-86
2022/04/14 06:21:36;;;;;;;49.55;27.73;;;;;;;;;;6188136;22;20021;-82
2022/04/14 06:24:05;;;;;;;48.33;28.65;;;;;;;;;;6136353;23;20470;-86
2022/04/14 06:26:34;;;;;;;44.17;26.73;;;;;;;;;;6135815;23;20096;-83
2022/04/14 06:29:03;;;;;;;48.70;29.60;;;;;;;;;;6136997;23;20477;-84
2022/04/14 06:31:29;;;;;;;47.38;29.85;;;;;;;;;;6137144;23;20017;-84
2022/04/14 06:33:56;;;;;;;45.83;29.23;;;;;;;;;;6137416;23;20104;-84
2022/04/14 06:36:22;;;;;;;49.90;27.98;;;;;;;;;;6137873;23;20439;-84
2022/04/14 06:38:52;;;;;;;42.63;27.42;;;;;;;;;;6141670;23;20023;-86
2022/04/14 06:41:19;;;;;;;43.97;25.38;;;;;;;;;;6148645;23;20017;-86
2022/04/14 06:43:49;;;;;;;43.38;27.85;;;;;;;;;;6147761;23;20017;-86
2022/04/14 06:46:16;;;;;;;44.97;26.42;;;;;;;;;;6148748;23;20017;-86
2022/04/14 06:48:42;;;;;;;37.70;23.83;;;;;;;;;;6138452;23;20023;-90
2022/04/14 06:51:08;;;;;;;35.42;24.17;;;;;;;;;;6164503;23;20028;-91
2022/04/14 06:53:34;;;;;;;34.85;23.42;;;;;;;;;;6139718;23;20013;-89
2022/04/14 06:56:01;;;;;;;35.47;22.65;;;;;;;;;;6138598;23;20374;-83
2022/04/14 06:58:28;;;;;;;36.40;22.13;;;;;;;;;;6144695;23;20425;-92
2022/04/14 07:00:55;;;;;;;34.42;22.58;;;;;;;;;;6145088;23;20024;-83
2022/04/14 07:03:26;;;;;;;36.28;21.05;;;;;;;;;;6142679;23;20462;-88
2022/04/14 07:05:54;;;;;;;31.73;21.38;;;;;;;;;;6141023;23;20439;-91
2022/04/14 07:08:21;;;;;;;36.55;20.42;;;;;;;;;;6138470;23;20048;-89
2022/04/14 07:10:47;;;;;;;31.42;19.80;;;;;;;;;;6165192;23;20028;-91
2022/04/14 07:13:13;;;;;;;25.80;18.58;;;;;;;;;;6137070;23;20068;-83
2022/04/14 07:15:39;;;;;;;36.20;20.77;;;;;;;;;;6160838;23;20024;-83
2022/04/14 07:18:05;;;;;;;29.23;19.40;;;;;;;;;;6140238;23;20334;-88
2022/04/14 07:20:31;;;;;;;33.35;20.05;;;;;;;;;;6132660;23;20101;-91
2022/04/14 07:22:59;;;;;;;35.90;20.02;;;;;;;;;;6130232;23;20021;-91
2022/04/14 07:25:28;;;;;;;31.08;19.08;;;;;;;;;;6133781;23;20026;-96
2022/04/14 07:27:54;;;;;;;32.88;19.73;;;;;;;;;;6131385;23;20018;-89
2022/04/14 07:30:23;;;;;;;26.88;18.85;;;;;;;;;;6131021;23;20379;-89
2022/04/14 07:32:49;;;;;;;30.70;18.90;;;;;;;;;;6135769;23;20045;-92
2022/04/14 07:35:18;;;;;;;25.60;18.02;;;;;;;;;;6153775;23;20020;-94
2022/04/14 07:37:45;;;;;;;28.45;19.23;;;;;;;;;;6164142;23;20027;-88
2022/04/14 07:40:11;;;;;;;29.80;17.80;;;;;;;;;;6135169;23;20021;-93
2022/04/14 07:42:38;;;;;;;29.20;18.58;;;;;;;;;;6156989;23;20498;-91
2022/04/14 07:45:05;;;;;;;28.92;19.13;;;;;;;;;;6129734;23;20100;-93
2022/04/14 07:47:31;;;;;;;27.02;18.77;;;;;;;;;;6130652;23;20048;-89
2022/04/14 07:49:58;;;;;;;29.75;18.08;;;;;;;;;;6136152;23;20014;-88
2022/04/14 07:52:24;;;;;;;29.60;18.95;;;;;;;;;;6160091;23;20025;-91
2022/04/14 07:54:50;;;;;;;30.27;18.85;;;;;;;;;;6133171;23;20482;-93
2022/04/14 07:57:16;;;;;;;24.40;17.83;;;;;;;;;;6133859;23;20022;-89
2022/04/14 07:59:42;;;;;;;30.05;19.35;;;;;;;;;;6160188;23;20435;-90
2022/04/14 08:02:08;;;;;;;27.60;18.33;;;;;;;;;;6134391;23;20100;-90
2022/04/14 08:04:38;;;;;;;28.25;17.23;;;;;;;;;;6159671;23;20018;-90
2022/04/14 08:07:05;;;;;;;27.52;18.75;;;;;;;;;;6131351;23;20018;-90
2022/04/14 08:09:31;;;;;;;29.88;16.33;;;;;;;;;;6156070;23;20024;-84
2022/04/14 08:11:57;;;;;;;25.30;16.58;;;;;;;;;;6133172;23;20057;-89
2022/04/14 08:14:23;;;;;;;22.33;16.20;;;;;;;;;;6157783;23;20347;-91
2022/04/14 08:16:50;;;;;;;26.42;17.50;;;;;;;;;;6132249;23;20104;-88
2022/04/14 08:19:18;;;;;;;25.50;16.25;;;;;;;;;;6158466;23;20021;-94
2022/04/14 08:21:46;;;;;;;25.73;17.40;;;;;;;;;;6134275;23;20021;-92
2022/04/14 08:24:12;;;;;;;25.27;15.95;;;;;;;;;;6140361;23;20075;-94
2022/04/14 08:26:38;;;;;;;25.45;16.63;;;;;;;;;;6115522;23;20021;-92
2022/04/14 08:29:04;;;;;;;23.50;15.55;;;;;;;;;;6162687;23;20024;-94
2022/04/14 08:31:31;;;;;;;17.27;13.98;;;;;;;;;;6162360;23;20068;-91
2022/04/14 08:33:57;;;;;;;19.23;14.82;;;;;;;;;;6137623;23;20514;-94
2022/04/14 08:36:23;;;;;;;24.25;15.65;;;;;;;;;;6142595;23;20478;-96
2022/04/14 08:38:50;;;;;;;18.35;13.75;;;;;;;;;;6140602;23;20025;-90
2022/04/14 08:41:20;;;;;;;19.20;14.40;;;;;;;;;;6139693;23;20041;-87
2022/04/14 08:43:56;;;;;;;20.27;14.68;;;;;;;;;;6163361;23;20018;-88
2022/04/14 08:46:22;;;;;;;20.67;12.73;;;;;;;;;;6134504;23;20025;-90
2022/04/14 08:48:57;;;;;;;20.27;12.75;;;13.50;99.90;;;;;;6133981;23;20014;-92
2022/04/14 08:51:26;;;;;;;16.50;11.95;;;;;;;;;;6134971;23;20100;-93
2022/04/14 08:53:52;;;;;;;25.55;14.45;;;;;;;;;;6133680;23;20022;-93
2022/04/14 08:56:19;;;;;;;19.00;13.50;;;;;;;;;;6134852;23;20021;-93
2022/04/14 08:58:46;;;;;;;19.48;14.32;;;;;;;;;;6134549;23;20024;-90
2022/04/14 09:01:16;;;;;;;18.85;13.63;;;;;;;;;;6111315;23;20028;-89
2022/04/14 09:03:42;;;;;;;20.48;10.77;;;;;;;;;;6134806;23;20044;-92
2022/04/14 09:06:09;;;;;;;14.98;11.75;;;;;;;;;;6162621;23;20100;-88
2022/04/14 09:08:35;;;;;;;15.80;11.30;;;;;;;;;;6136722;23;20024;-88
2022/04/14 09:11:02;;;;;;;17.15;11.60;;;;;;;;;;6133317;23;20439;-84
2022/04/14 09:13:28;;;;;;;14.45;10.90;;;;;;;;;;6132762;23;20077;-89
2022/04/14 09:15:54;;;;;;;16.17;10.73;;;;;;;;;;6132294;23;20049;-89
2022/04/14 09:18:20;;;;;;;11.45;8.10;;;;;;;;;;6133739;23;20022;-87
2022/04/14 09:20:48;;;;;;;16.13;11.35;;;;;;;;;;6132739;23;20023;-86
2022/04/14 09:23:20;;;;;;;16.20;9.75;;;;;;;;;;6130971;23;20017;-91
2022/04/14 09:25:47;;;;;;;14.55;8.88;;;;;;;;;;6132644;23;20035;-85
2022/04/14 09:28:21;;;;;;;18.10;9.77;;;;;;;;;;6131502;23;20012;-87
2022/04/14 09:31:01;;;;;;;17.17;9.75;;;;;;;;;;6159557;23;20072;-90
2022/04/14 09:33:27;;;;;;;12.93;8.63;;;;;;;;;;6134214;23;20447;-90
2022/04/14 09:36:13;;;;;;;15.45;10.50;;;;;;;;;;6137014;23;20078;-92
2022/04/14 09:39:02;;;;;;;13.50;9.60;;;15.10;99.90;;;;;;6136600;23;20017;-90
2022/04/14 09:41:31;;;;;;;15.10;9.68;;;;;;;;;;6135429;23;20025;-89
2022/04/14 09:43:59;;;;;;;13.65;10.40;;;15.50;99.90;;;;;;6136084;23;20722;-91
2022/04/14 09:46:26;;;;;;;12.88;10.52;;;;;;;;;;6163733;23;20040;-96
2022/04/14 09:49:00;;;;;;;14.65;9.70;;;;;;;;;;6166729;23;20020;-95
2022/04/14 09:51:26;;;;;;;13.98;9.98;;;15.50;99.90;;;;;;6190145;23;20464;-95
2022/04/14 09:54:04;;;;;;;13.55;8.73;;;15.30;99.90;;;;;;6162184;23;20025;-87
2022/04/14 09:56:54;;;;;;;14.27;10.13;;;;;;;;;;6161529;23;20077;-91
2022/04/14 09:59:38;;;;;;;12.23;9.25;;;15.70;99.90;;;;;;6179955;23;20025;-88
2022/04/14 10:02:27;;;;;;;10.95;7.35;;;15.50;99.90;;;;;;6167540;23;20021;-87
2022/04/14 10:05:07;;;;;;;9.55;6.05;;;;;;;;;;6195034;23;20438;-88
2022/04/14 10:07:46;;;;;;;9.15;6.07;;;;;;;;;;6144805;23;20107;-89
2022/04/14 10:10:25;;;;;;;5.10;4.32;;;;;;;;;;6117019;23;20036;-88
2022/04/14 10:13:13;;;;;;;9.02;5.90;;;;;;;;;;6146570;23;20028;-88
2022/04/14 10:18:48;;;;;;;8.80;5.40;;;;;;;;;;6077860;23;20023;-88
2022/04/14 10:21:23;;;;;;;8.60;5.38;;;;;;;;;;6058533;23;20028;-88
2022/04/14 10:23:52;;;;;;;9.80;6.15;;;;;;;;;;6060190;23;20034;-87
2022/04/14 10:26:22;;;;;;;6.10;4.50;;;;;;;;;;6054299;23;20015;-88
2022/04/14 10:29:14;;;;;;;;;;;;;;;;;;;;;
2022/04/14 10:31:53;;;;;;;5.35;3.97;;;;;;;;;;6071536;23;20034;-88
2022/04/14 10:34:36;;;;;;;9.20;4.45;;;;;;;;;;6048707;23;20073;-89
2022/04/14 10:37:16;;;;;;;7.55;4.15;;;;;;;;;;6025612;23;20023;-89
2022/04/14 10:39:49;;;;;;;8.02;4.25;;;;;;;;;;6049761;23;20033;-88
2022/04/14 10:42:29;;;;;;;13.85;5.05;;;16.20;99.90;;;;;;6049552;23;20461;-88
2022/04/14 10:44:58;;;;;;;8.90;4.85;;;;;;;;;;6027128;23;20051;-88
2022/04/14 10:47:34;;;;;;;6.80;5.28;;;;;;;;;;6050054;23;20019;-90
2022/04/14 10:50:01;;;;;;;6.05;4.90;;;;;;;;;;6043963;23;20023;-88
2022/04/14 10:52:30;;;;;;;8.40;4.78;;;;;;;;;;6046803;23;20469;-93
2022/04/14 10:54:59;;;;;;;7.38;3.38;;;;;;;;;;6033887;23;20049;-91
2022/04/14 10:58:01;;;;;;;9.85;5.60;;;;;;;;;;6101407;23;20021;-92
2022/04/14 11:00:36;;;;;;;11.00;5.72;;;16.10;99.90;;;;;;6100095;23;20025;-89
2022/04/14 11:03:05;;;;;;;7.72;5.07;;;16.10;99.90;;;;;;6104821;23;20474;-89
2022/04/14 11:05:41;;;;;;;5.57;3.67;;;;;;;;;;6132348;23;20024;-91
2022/04/14 11:08:27;;;;;;;7.22;4.00;;;15.80;99.90;;;;;;6107012;23;20018;-89
2022/04/14 11:10:59;;;;;;;7.93;3.58;;;;;;;;;;6107269;23;20029;-91
2022/04/14 11:14:08;;;;;;;;;;;;;;;;;;;;;
2022/04/14 11:16:50;;;;;;;7.13;4.40;;;;;;;;;;6130042;23;20028;-91
2022/04/14 11:19:24;;;;;;;5.82;3.92;;;;;;;;;;6103289;23;20125;-83
2022/04/14 11:22:07;;;;;;;8.45;5.65;;;;;;;;;;6105454;23;20022;-86
2022/04/14 11:24:43;;;;;;;7.85;4.93;;;;;;;;;;6142300;23;20338;-88
2022/04/14 11:27:13;;;;;;;10.65;6.57;;;;;;;;;;6158734;23;20025;-86
2022/04/14 11:29:41;;;;;;;4.65;3.78;;;16.70;99.90;;;;;;6135737;23;20021;-87
2022/04/14 11:32:07;;;;;;;8.27;4.93;;;;;;;;;;6135218;23;20021;-85
2022/04/14 11:34:39;;;;;;;8.73;5.15;;;16.50;99.90;;;;;;6137227;23;20017;-83
2022/04/14 11:37:38;;;;;;;7.93;5.63;;;16.40;99.90;;;;;;6137327;23;20021;-84
2022/04/14 11:40:17;;;;;;;15.63;6.72;;;;;;;;;;6138310;23;20021;-83
2022/04/14 11:42:51;;;;;;;8.85;6.35;;;16.40;99.90;;;;;;6138213;23;20052;-93
2022/04/14 11:49:08;;;;;;;10.05;5.25;;;;;;;;;;6068033;23;20066;-92
2022/04/14 11:51:52;;;;;;;7.75;5.22;;;;;;;;;;6021163;23;20109;-93
2022/04/14 12:00:27;;;;;;;8.43;5.18;;;;;;;;;;6186701;23;20079;-90
2022/04/14 12:03:58;;;;;;;8.45;4.45;;;;;;;;;;6138499;23;20021;-92
2022/04/14 12:06:41;;;;;;;6.88;3.67;;;;;;;;;;6155598;23;20075;-93
2022/04/14 12:09:08;;;;;;;7.95;3.13;;;;;;;;;;6189281;23;20024;-91
2022/04/14 12:11:40;;;;;;;6.30;4.13;;;;;;;;;;6145602;23;20024;-91
2022/04/14 12:14:07;;;;;;;6.85;4.57;;;;;;;;;;6163192;23;20021;-93
2022/04/14 12:16:41;;;;;;;4.68;4.00;;;;;;;;;;6168108;23;20020;-92
2022/04/14 12:19:10;;;;;;;5.25;3.58;;;;;;;;;;6167012;23;20350;-91
2022/04/14 12:21:39;;;;;;;6.78;3.20;;;;;;;;;;6167133;23;20450;-89
2022/04/14 12:24:05;;;;;;;7.03;3.65;;;;;;;;;;6192430;23;20024;-90
2022/04/14 12:26:35;;;;;;;6.90;4.35;;;;;;;;;;6190091;23;20067;-89
2022/04/14 12:29:02;;;;;;;6.35;4.75;;;;;;;;;;6166692;23;20040;-89
2022/04/14 12:31:30;;;;;;;4.20;3.50;;;;;;;;;;6166255;23;20021;-89
2022/04/14 12:34:00;;;;;;;6.22;4.28;;;;;;;;;;6155895;23;20017;-88
2022/04/14 12:36:36;;;;;;;7.22;4.20;;;;;;;;;;6160606;23;20017;-91
2022/04/14 12:39:18;;;;;;;4.75;3.70;;;;;;;;;;6160020;23;20358;-91
2022/04/14 12:42:23;;;;;;;4.68;3.75;;;16.00;99.90;;;;;;6160292;23;20017;-92
2022/04/14 12:44:49;;;;;;;8.57;3.65;;;;;;;;;;6066628;23;20029;-85
2022/04/14 12:47:15;;;;;;;8.75;4.47;;;;;;;;;;6042834;23;20010;-86
2022/04/14 12:49:42;;;;;;;6.75;4.65;;;15.40;99.90;;;;;;6019168;23;20020;-86
2022/04/14 12:52:09;;;;;;;11.02;4.40;;;;;;;;;;6018442;23;20019;-86
2022/04/14 12:54:48;;;;;;;7.47;3.65;;;;;;;;;;6019304;23;20019;-87
2022/04/14 12:57:24;;;;;;;8.40;4.32;;;15.30;99.90;;;;;;6042261;23;20400;-82
2022/04/14 13:00:11;;;;;;;4.88;3.47;;;15.70;99.90;;;;;;6018607;23;20019;-85
2022/04/14 13:03:18;;;;;;;7.32;3.92;;;15.40;99.90;;;;;;6018468;23;20535;-90
2022/04/14 13:05:45;;;;;;;17.13;5.68;;;;;;;;;;5985692;23;20091;-92
2022/04/14 13:08:12;;;;;;;5.43;4.30;;;;;;;;;;5962731;23;20362;-87
2022/04/14 13:10:39;;;;;;;10.25;4.78;;;;;;;;;;6013046;23;20111;-88
2022/04/14 13:13:06;;;;;;;8.13;5.18;;;;;;;;;;6013643;23;20470;-92
2022/04/14 13:15:32;;;;;;;15.57;9.25;;;;;;;;;;6012185;23;20024;-94
2022/04/14 13:17:59;;;;;;;15.77;9.55;;;;;;;;;;6011688;23;20019;-95
2022/04/14 13:20:40;;;;;;;18.10;9.65;;;15.20;99.90;;;;;;6008691;23;20478;-89
2022/04/14 13:23:08;;;;;;;14.48;9.05;;;;;;;;;;6075810;23;20061;-87
2022/04/14 13:25:40;;;;;;;14.63;9.43;;;15.20;99.90;;;;;;6074166;23;20022;-88
2022/04/14 13:28:08;;;;;;;14.18;9.10;;;;;;;;;;6083244;23;20021;-85
2022/04/14 13:30:36;;;;;;;18.02;9.30;;;;;;;;;;6136376;23;20041;-86
2022/04/14 13:33:03;;;;;;;15.10;9.27;;;;;;;;;;6140429;23;20028;-93
2022/04/14 13:35:30;;;;;;;13.15;8.35;;;;;;;;;;6144985;23;20088;-93
2022/04/14 13:37:56;;;;;;;16.23;9.65;;;;;;;;;;6139750;23;20044;-95
2022/04/14 13:40:22;;;;;;;15.07;9.60;;;;;;;;;;6140015;23;20028;-92
2022/04/14 13:42:49;;;;;;;16.52;8.80;;;;;;;;;;6144152;23;20024;-93
2022/04/14 13:45:16;;;;;;;11.98;8.82;;;;;;;;;;6140892;23;20021;-93
2022/04/14 13:47:42;;;;;;;13.68;8.35;;;;;;;;;;6139311;23;20347;-86
2022/04/14 13:50:12;;;;;;;11.95;8.90;;;;;;;;;;6141027;23;20074;-88
2022/04/14 13:52:39;;;;;;;16.00;7.32;;;;;;;;;;6142570;23;20028;-88
2022/04/14 13:55:06;;;;;;;13.60;7.75;;;;;;;;;;6136610;23;20028;-93
2022/04/14 13:57:32;;;;;;;9.15;6.68;;;;;;;;;;6135545;23;20029;-90
2022/04/14 13:59:58;;;;;;;13.63;7.18;;;;;;;;;;6137367;23;20017;-93
2022/04/14 14:02:24;;;;;;;8.38;6.47;;;;;;;;;;6136157;23;20013;-93
2022/04/14 14:04:51;;;;;;;12.48;7.35;;;;;;;;;;6136244;23;20036;-92
2022/04/14 14:07:17;;;;;;;7.93;6.43;;;;;;;;;;6136331;23;20447;-84
2022/04/14 14:09:43;;;;;;;7.18;5.00;;;;;;;;;;6142979;23;20021;-86
2022/04/14 14:12:09;;;;;;;13.07;6.70;;;;;;;;;;6143997;23;20017;-91
2022/04/14 14:14:35;;;;;;;11.82;6.63;;;;;;;;;;6143559;23;20028;-88
2022/04/14 14:17:02;;;;;;;7.85;6.15;;;;;;;;;;6166187;23;20017;-88
2022/04/14 14:19:28;;;;;;;16.67;6.53;;;;;;;;;;6141698;23;20017;-89
2022/04/14 14:21:54;;;;;;;9.85;5.22;;;;;;;;;;6168078;23;20017;-94
2022/04/14 14:24:23;;;;;;;5.55;4.53;;;;;;;;;;6140881;23;20024;-87
2022/04/14 14:26:49;;;;;;;6.25;5.32;;;;;;;;;;6166221;23;20018;-93
2022/04/14 14:29:15;;;;;;;7.78;4.53;;;;;;;;;;6141724;23;20021;-90
2022/04/14 14:31:45;;;;;;;6.32;3.72;;;;;;;;;;6144881;23;20032;-93
2022/04/14 14:34:11;;;;;;;6.00;3.30;;;;;;;;;;6166695;23;20024;-94
2022/04/14 14:36:37;;;;;;;5.00;4.00;;;;;;;;;;6142963;23;20346;-88
2022/04/14 14:39:04;;;;;;;5.82;3.63;;;;;;;;;;6143604;23;20465;-94
2022/04/14 14:41:30;;;;;;;6.28;3.72;;;;;;;;;;6144967;23;20390;-94